Time;durP1;ratioP1;P1;durP2;ratioP2;P2;SDS_P1;SDS_P2;PMS_P1;PMS_P2;Temp;Humidity;BMP_temperature;BMP_pressure;BME280_temperature;BME280_humidity;BME280_pressure;Samples;Min_cycle;Max_cycle;Signal;HPM_P1;HPM_P2
2021/12/09 00:01:10;;;;;;;6.37;3.33;;;0.50;96.00;;;;;;2223412;64;20088;-36
2021/12/09 00:03:40;;;;;;;11.93;3.93;;;0.50;95.90;;;;;;2223370;64;20437;-31
2021/12/09 00:06:07;;;;;;;7.63;3.53;;;0.50;96.00;;;;;;2223607;64;20092;-31
2021/12/09 00:08:34;;;;;;;9.43;4.07;;;0.50;95.90;;;;;;2220486;64;20152;-31
2021/12/09 00:11:02;;;;;;;8.70;5.93;;;0.40;95.80;;;;;;2220426;64;20115;-32
2021/12/09 00:13:28;;;;;;;5.57;2.60;;;0.40;95.70;;;;;;2220151;64;20597;-33
2021/12/09 00:15:55;;;;;;;5.33;4.30;;;0.40;95.80;;;;;;2220153;64;20583;-32
2021/12/09 00:18:22;;;;;;;6.77;3.27;;;0.30;96.10;;;;;;2220195;64;20488;-32
2021/12/09 00:20:48;;;;;;;4.10;2.17;;;0.40;96.20;;;;;;2220179;64;20123;-32
2021/12/09 00:23:15;;;;;;;7.60;3.63;;;0.30;96.20;;;;;;2223451;64;20108;-34
2021/12/09 00:25:41;;;;;;;7.00;4.47;;;0.40;96.40;;;;;;2223551;64;20093;-32
2021/12/09 00:28:08;;;;;;;7.57;3.60;;;0.40;96.00;;;;;;2220322;64;20092;-32
2021/12/09 00:30:34;;;;;;;8.97;4.07;;;0.40;95.90;;;;;;2220101;64;20477;-33
2021/12/09 00:33:02;;;;;;;8.47;5.27;;;0.40;95.70;;;;;;2220388;64;20081;-31
2021/12/09 00:35:34;;;;;;;7.03;3.93;;;0.40;95.90;;;;;;2220228;64;20598;-33
2021/12/09 00:38:07;;;;;;;3.97;2.83;;;0.40;95.70;;;;;;2220170;64;20595;-33
2021/12/09 00:40:34;;;;;;;7.23;3.70;;;0.40;95.80;;;;;;2220404;64;20091;-33
2021/12/09 00:43:01;;;;;;;10.87;6.17;;;0.30;96.00;;;;;;2219983;64;20127;-33
2021/12/09 00:45:27;;;;;;;7.27;5.37;;;0.40;96.20;;;;;;2223449;64;20111;-32
2021/12/09 00:47:54;;;;;;;8.00;4.80;;;0.40;96.00;;;;;;2219580;64;20081;-31
2021/12/09 00:50:20;;;;;;;7.63;4.13;;;0.40;96.00;;;;;;2216241;64;20096;-33
2021/12/09 00:52:47;;;;;;;11.93;6.40;;;0.30;96.30;;;;;;2216264;64;20267;-35
2021/12/09 00:55:14;;;;;;;8.37;4.80;;;0.30;96.30;;;;;;2216249;64;20081;-35
2021/12/09 00:57:41;;;;;;;7.30;3.53;;;0.30;96.10;;;;;;2216091;64;20557;-32
2021/12/09 01:00:10;;;;;;;9.63;4.13;;;0.40;96.10;;;;;;2216356;64;20161;-56
2021/12/09 01:02:37;;;;;;;10.90;4.87;;;0.30;96.20;;;;;;2215041;64;20619;-31
2021/12/09 01:05:04;;;;;;;10.80;3.97;;;0.30;96.20;;;;;;2212020;64;20116;-31
2021/12/09 01:07:31;;;;;;;11.77;4.43;;;0.30;96.30;;;;;;2211923;64;20081;-31
2021/12/09 01:09:57;;;;;;;10.00;6.47;;;0.30;96.20;;;;;;2212035;64;20105;-31
2021/12/09 01:12:24;;;;;;;5.63;2.93;;;0.30;96.10;;;;;;2211913;64;20073;-30
2021/12/09 01:14:50;;;;;;;9.03;4.63;;;0.20;95.90;;;;;;2215206;64;20127;-31
2021/12/09 01:17:17;;;;;;;7.20;4.17;;;0.20;96.20;;;;;;2212001;64;20176;-30
2021/12/09 01:19:44;;;;;;;8.20;2.77;;;0.20;96.30;;;;;;2211811;64;20507;-30
2021/12/09 01:22:10;;;;;;;12.03;6.73;;;0.20;96.30;;;;;;2211877;64;20477;-31
2021/12/09 01:24:37;;;;;;;14.00;6.07;;;0.30;96.30;;;;;;2212004;64;20103;-30
2021/12/09 01:27:03;;;;;;;13.77;7.20;;;0.20;96.30;;;;;;2212034;64;20191;-30
2021/12/09 01:29:37;;;;;;;13.53;7.10;;;0.20;96.50;;;;;;2211851;64;20069;-34
2021/12/09 01:32:06;;;;;;;14.97;7.27;;;0.20;96.60;;;;;;2211791;64;20083;-31
2021/12/09 01:34:34;;;;;;;15.47;6.27;;;0.20;96.60;;;;;;2215253;64;20564;-30
2021/12/09 01:37:00;;;;;;;13.50;6.13;;;0.20;96.50;;;;;;2216094;64;20097;-31
2021/12/09 01:39:28;;;;;;;12.03;6.37;;;0.20;96.70;;;;;;2216000;64;20113;-31
2021/12/09 01:41:56;;;;;;;12.87;6.50;;;0.20;96.70;;;;;;2216094;64;20085;-31
2021/12/09 01:44:23;;;;;;;18.37;9.17;;;0.20;96.80;;;;;;2212971;64;20100;-31
2021/12/09 01:46:50;;;;;;;15.53;8.13;;;0.20;96.80;;;;;;2217049;64;20077;-31
2021/12/09 01:49:17;;;;;;;13.40;6.77;;;0.20;96.90;;;;;;2216870;64;20076;-32
2021/12/09 01:51:45;;;;;;;13.27;7.13;;;0.20;96.90;;;;;;2219969;64;20081;-39
2021/12/09 01:54:12;;;;;;;17.80;8.87;;;0.10;97.00;;;;;;2216838;64;20168;-31
2021/12/09 01:56:39;;;;;;;20.07;10.07;;;0.10;97.10;;;;;;2219892;64;20096;-31
2021/12/09 01:59:06;;;;;;;16.73;7.30;;;0.00;97.20;;;;;;2220083;64;20089;-32
2021/12/09 02:01:32;;;;;;;20.70;8.57;;;0.00;97.40;;;;;;2219844;64;20100;-31
2021/12/09 02:03:59;;;;;;;14.73;6.30;;;0.00;97.50;;;;;;2216617;64;20092;-31
2021/12/09 02:06:26;;;;;;;23.63;11.73;;;0.00;97.50;;;;;;2219194;64;20077;-36
2021/12/09 02:08:53;;;;;;;23.70;8.60;;;0.00;97.40;;;;;;2219550;64;20143;-36
2021/12/09 02:11:20;;;;;;;15.30;7.33;;;0.00;97.30;;;;;;2219516;64;20092;-35
2021/12/09 02:13:50;;;;;;;26.03;8.73;;;0.00;97.20;;;;;;2219546;64;20088;-31
2021/12/09 02:16:17;;;;;;;24.83;10.77;;;0.00;97.20;;;;;;2219461;64;20205;-31
2021/12/09 02:18:43;;;;;;;31.03;10.77;;;0.00;97.10;;;;;;2219506;64;20597;-34
2021/12/09 02:21:13;;;;;;;27.87;12.37;;;0.00;96.90;;;;;;2219600;64;20076;-33
2021/12/09 02:23:42;;;;;;;16.67;7.93;;;0.00;97.00;;;;;;2219541;64;20445;-35
2021/12/09 02:26:09;;;;;;;29.60;11.03;;;0.00;96.90;;;;;;2220039;64;20143;-34
2021/12/09 02:28:36;;;;;;;23.30;8.63;;;0.00;97.00;;;;;;2220225;64;20080;-31
2021/12/09 02:31:02;;;;;;;21.00;9.30;;;0.00;96.80;;;;;;2220132;64;20230;-31
2021/12/09 02:33:29;;;;;;;25.77;10.00;;;0.00;96.60;;;;;;2219998;64;20529;-31
2021/12/09 02:35:55;;;;;;;15.63;5.47;;;-0.10;96.70;;;;;;2220056;64;20077;-30
2021/12/09 02:38:22;;;;;;;21.47;9.33;;;-0.20;96.70;;;;;;2220040;64;20197;-30
2021/12/09 02:40:49;;;;;;;23.87;8.67;;;-0.10;96.60;;;;;;2220403;64;20091;-30
2021/12/09 02:43:16;;;;;;;12.20;3.53;;;-0.10;96.50;;;;;;2220381;64;20101;-31
2021/12/09 02:45:51;;;;;;;25.00;7.80;;;-0.20;96.00;;;;;;2217349;64;20097;-31
2021/12/09 02:48:18;;;;;;;;;;;-0.20;95.90;;;;;;2215645;64;20101;-31
2021/12/09 02:50:45;;;;;;;10.93;4.37;;;-0.20;95.60;;;;;;2216136;64;19977;-36
2021/12/09 02:53:12;;;;;;;11.53;5.73;;;-0.30;95.70;;;;;;2216404;64;20210;-31
2021/12/09 02:55:38;;;;;;;14.23;5.23;;;-0.20;95.60;;;;;;2216201;64;20689;-31
2021/12/09 02:58:05;;;;;;;8.33;1.93;;;-0.20;95.50;;;;;;2216139;64;20105;-31
2021/12/09 03:00:32;;;;;;;13.23;3.43;;;-0.30;95.60;;;;;;2216341;64;20092;-31
2021/12/09 03:02:59;;;;;;;11.53;5.67;;;-0.30;95.40;;;;;;2212862;64;20603;-33
2021/12/09 03:05:26;;;;;;;15.80;7.50;;;-0.30;95.50;;;;;;2216146;64;20186;-34
2021/12/09 03:07:53;;;;;;;11.90;4.63;;;-0.30;95.30;;;;;;2216183;64;20103;-31
2021/12/09 03:10:24;;;;;;;14.20;6.57;;;-0.30;94.80;;;;;;2216204;64;20077;-34
2021/12/09 03:12:56;;;;;;;5.30;2.17;;;-0.30;94.80;;;;;;2216031;64;20556;-30
2021/12/09 03:15:23;;;;;;;7.17;2.70;;;-0.40;94.80;;;;;;2216215;64;20104;-30
2021/12/09 03:17:50;;;;;;;23.73;7.70;;;-0.40;94.70;;;;;;2216118;64;20081;-32
2021/12/09 03:20:17;;;;;;;8.13;3.13;;;-0.40;94.60;;;;;;2219465;64;20107;-32
2021/12/09 03:22:44;;;;;;;8.03;3.60;;;-0.30;94.40;;;;;;2220349;64;20093;-32
2021/12/09 03:25:12;;;;;;;9.47;5.57;;;-0.40;94.00;;;;;;2220334;64;20088;-30
2021/12/09 03:27:39;;;;;;;5.20;2.97;;;-0.40;94.00;;;;;;2219031;64;20093;-32
2021/12/09 03:30:07;;;;;;;5.57;2.70;;;-0.40;93.40;;;;;;2215831;64;20743;-31
2021/12/09 03:32:33;;;;;;;7.50;3.67;;;-0.40;93.40;;;;;;2219082;64;20093;-30
2021/12/09 03:35:00;;;;;;;10.60;4.37;;;-0.50;93.20;;;;;;2216065;64;20140;-31
2021/12/09 03:37:30;;;;;;;4.43;2.07;;;-0.50;93.60;;;;;;2215860;64;20107;-31
2021/12/09 03:39:56;;;;;;;5.20;2.43;;;-0.60;94.10;;;;;;2216094;64;20089;-30
2021/12/09 03:42:26;;;;;;;5.63;2.67;;;-0.60;94.00;;;;;;2215957;64;20096;-32
2021/12/09 03:44:52;;;;;;;7.03;2.33;;;-0.60;94.20;;;;;;2215996;64;20155;-37
2021/12/09 03:47:21;;;;;;;17.70;10.33;;;-0.60;94.60;;;;;;2214360;64;20095;-30
2021/12/09 03:49:48;;;;;;;19.23;5.57;;;-0.70;94.80;;;;;;2212206;64;20073;-40
2021/12/09 03:52:15;;;;;;;11.90;5.70;;;-0.60;94.80;;;;;;2212350;64;20093;-31
2021/12/09 03:54:42;;;;;;;5.43;2.77;;;-0.60;94.90;;;;;;2215234;64;20128;-32
2021/12/09 03:57:09;;;;;;;14.03;5.50;;;-0.60;94.80;;;;;;2208631;64;20596;-30
2021/12/09 03:59:36;;;;;;;15.00;7.00;;;-0.60;94.70;;;;;;2218835;64;20096;-30
2021/12/09 04:02:03;;;;;;;10.50;3.47;;;-0.70;94.60;;;;;;2220169;64;20084;-34
2021/12/09 04:04:29;;;;;;;9.77;5.03;;;-0.60;94.50;;;;;;2220101;64;20087;-32
2021/12/09 04:06:56;;;;;;;14.13;3.83;;;-0.70;94.20;;;;;;2223548;64;20156;-32
2021/12/09 04:09:23;;;;;;;12.77;4.80;;;-0.70;94.10;;;;;;2220163;64;20088;-31
2021/12/09 04:11:50;;;;;;;7.23;2.17;;;-0.70;94.10;;;;;;2220111;64;20088;-34
2021/12/09 04:14:17;;;;;;;9.30;3.33;;;-0.70;93.80;;;;;;2220404;64;20093;-32
2021/12/09 04:16:43;;;;;;;16.37;4.50;;;-0.80;93.80;;;;;;2208067;64;20120;-33
2021/12/09 04:19:10;;;;;;;8.60;3.93;;;-0.80;93.50;;;;;;2211468;64;20116;-32
2021/12/09 04:21:37;;;;;;;5.90;3.33;;;-0.90;93.30;;;;;;2211437;64;20090;-32
2021/12/09 04:24:07;;;;;;;5.77;1.77;;;-0.90;93.10;;;;;;2211427;64;20093;-37
2021/12/09 04:26:38;;;;;;;7.37;3.43;;;-0.90;92.80;;;;;;2208273;64;20082;-37
2021/12/09 04:29:05;;;;;;;7.33;2.63;;;-0.90;92.70;;;;;;2211485;64;20070;-31
2021/12/09 04:31:31;;;;;;;5.57;3.40;;;-1.00;92.80;;;;;;2211367;64;20081;-31
2021/12/09 04:33:58;;;;;;;6.00;2.97;;;-0.90;92.90;;;;;;2211532;64;20132;-33
2021/12/09 04:36:25;;;;;;;8.97;3.07;;;-0.90;92.80;;;;;;2211337;64;20182;-34
2021/12/09 04:38:53;;;;;;;6.73;2.17;;;-0.90;92.80;;;;;;2211497;64;20104;-34
2021/12/09 04:41:20;;;;;;;12.20;5.07;;;-1.00;92.50;;;;;;2211223;64;20165;-33
2021/12/09 04:43:47;;;;;;;8.13;1.90;;;-0.90;92.70;;;;;;2211112;64;20142;-35
2021/12/09 04:46:14;;;;;;;4.60;2.50;;;-0.90;92.70;;;;;;2211416;64;20094;-33
2021/12/09 04:48:41;;;;;;;5.70;4.30;;;-1.00;92.40;;;;;;2211353;64;20109;-32
2021/12/09 04:51:07;;;;;;;7.13;2.73;;;-0.90;92.40;;;;;;2216198;64;20077;-30
2021/12/09 04:53:34;;;;;;;7.40;1.47;;;-1.00;92.40;;;;;;2216345;64;20092;-32
2021/12/09 04:56:00;;;;;;;2.17;1.13;;;-1.00;92.40;;;;;;2216268;64;20081;-31
2021/12/09 04:58:27;;;;;;;4.30;1.30;;;-0.90;92.60;;;;;;2216217;64;20096;-42
2021/12/09 05:00:55;;;;;;;5.00;2.43;;;-0.90;92.70;;;;;;2216125;64;20131;-31
2021/12/09 05:03:23;;;;;;;4.97;2.13;;;-1.00;92.50;;;;;;2216161;64;20104;-33
2021/12/09 05:05:51;;;;;;;5.13;1.83;;;-1.00;92.40;;;;;;2216071;64;20476;-31
2021/12/09 05:08:20;;;;;;;17.00;5.33;;;-1.00;92.20;;;;;;2216250;64;20105;-30
2021/12/09 05:11:16;;;;;;;6.00;2.00;;;-1.00;92.30;;;;;;2216236;64;20089;-31
2021/12/09 05:13:38;;;;;;;7.77;3.73;;;-1.00;92.10;;;;;;2215743;64;20090;-31
2021/12/09 05:16:06;;;;;;;5.60;2.73;;;-0.90;92.10;;;;;;2216131;64;20104;-31
2021/12/09 05:18:35;;;;;;;9.33;2.47;;;-1.00;92.00;;;;;;2216190;64;20170;-32
2021/12/09 05:21:02;;;;;;;9.20;2.37;;;-1.00;91.70;;;;;;2216200;64;20108;-31
2021/12/09 05:23:29;;;;;;;10.10;4.57;;;-1.00;91.90;;;;;;2216036;64;20115;-32
2021/12/09 05:25:56;;;;;;;11.33;4.47;;;-1.00;91.80;;;;;;2216045;64;20557;-35
2021/12/09 05:28:30;;;;;;;12.07;4.00;;;-1.00;91.90;;;;;;2216169;64;20491;-30
2021/12/09 05:33:43;;;;;;;9.60;3.50;;;-1.00;91.70;;;;;;2215702;64;20663;-30
2021/12/09 05:36:09;;;;;;;13.10;6.03;;;-1.00;91.70;;;;;;2212677;64;20496;-30
2021/12/09 05:38:36;;;;;;;13.67;5.03;;;-1.00;91.70;;;;;;2216084;64;20526;-30
2021/12/09 05:41:03;;;;;;;6.20;2.97;;;-0.90;91.60;;;;;;2214887;64;20540;-31
2021/12/09 05:43:30;;;;;;;7.87;3.90;;;-0.90;91.10;;;;;;2211621;64;20231;-30
2021/12/09 05:45:56;;;;;;;5.50;3.43;;;-0.90;91.20;;;;;;2211776;64;20097;-31
2021/12/09 05:48:23;;;;;;;8.33;1.80;;;-1.00;91.10;;;;;;2215234;64;20114;-33
2021/12/09 05:50:49;;;;;;;7.10;3.20;;;-1.00;91.20;;;;;;2215704;64;20081;-29
2021/12/09 05:53:16;;;;;;;9.00;2.87;;;-1.00;91.50;;;;;;2215586;64;20163;-31
2021/12/09 05:55:43;;;;;;;8.50;2.57;;;-0.90;91.10;;;;;;2215645;64;20247;-32
2021/12/09 05:58:17;;;;;;;7.57;2.07;;;-0.90;90.80;;;;;;2215605;64;20100;-31
2021/12/09 06:00:44;;;;;;;12.35;4.07;;;-1.00;90.60;;;;;;2216056;64;20099;-31
2021/12/09 06:03:11;;;;;;;14.63;4.00;;;-0.90;91.10;;;;;;2216271;64;20572;-31
2021/12/09 06:05:38;;;;;;;15.57;3.03;;;-0.90;90.80;;;;;;2216273;64;20107;-30
2021/12/09 06:08:04;;;;;;;10.80;3.47;;;-0.80;90.70;;;;;;2216250;64;20567;-32
2021/12/09 06:10:33;;;;;;;1.73;0.90;;;-0.70;90.40;;;;;;2216404;64;20173;-31
2021/12/09 06:13:00;;;;;;;9.17;3.93;;;-0.60;90.20;;;;;;2216120;64;20576;-30
2021/12/09 06:15:27;;;;;;;3.93;1.83;;;-0.60;89.80;;;;;;2216299;64;20085;-32
2021/12/09 06:17:53;;;;;;;8.13;2.67;;;-0.60;89.00;;;;;;2216662;64;20096;-30
2021/12/09 06:20:20;;;;;;;6.47;3.53;;;-0.50;89.00;;;;;;2220371;64;20467;-30
2021/12/09 06:22:46;;;;;;;12.00;4.77;;;-0.50;88.20;;;;;;2211319;64;20100;-30
2021/12/09 06:25:18;;;;;;;12.13;5.33;;;-0.50;88.20;;;;;;2208508;64;20221;-31
2021/12/09 06:27:45;;;;;;;8.30;2.53;;;-0.50;87.70;;;;;;2208477;64;20070;-30
2021/12/09 06:30:14;;;;;;;5.30;1.50;;;-0.50;87.60;;;;;;2211788;64;20469;-30
2021/12/09 06:32:41;;;;;;;5.63;2.60;;;-0.50;86.90;;;;;;2211604;64;20094;-34
2021/12/09 06:35:08;;;;;;;6.47;1.10;;;-0.50;87.20;;;;;;2211689;64;20108;-30
2021/12/09 06:37:40;;;;;;;7.70;1.70;;;-0.50;86.60;;;;;;2211702;64;20131;-30
2021/12/09 06:40:08;;;;;;;10.10;2.77;;;-0.40;86.40;;;;;;2211760;64;20093;-32
2021/12/09 06:42:34;;;;;;;5.53;2.27;;;-0.40;86.00;;;;;;2208344;64;20089;-30
2021/12/09 06:45:01;;;;;;;2.17;1.13;;;-0.40;85.10;;;;;;2205171;64;20472;-30
2021/12/09 06:47:28;;;;;;;4.97;0.67;;;-0.50;84.40;;;;;;2211457;64;20074;-37
2021/12/09 06:49:54;;;;;;;7.43;2.23;;;-0.40;85.20;;;;;;2211689;64;20577;-32
2021/12/09 06:52:21;;;;;;;2.30;1.17;;;-0.40;84.50;;;;;;2211794;64;20128;-29
2021/12/09 06:54:47;;;;;;;2.17;1.00;;;-0.40;84.70;;;;;;2215396;64;20200;-30
2021/12/09 06:57:14;;;;;;;5.23;1.93;;;-0.40;84.60;;;;;;2219712;64;20634;-31
2021/12/09 06:59:41;;;;;;;8.27;2.07;;;-0.40;84.50;;;;;;2216595;64;20217;-32
2021/12/09 07:02:08;;;;;;;4.87;1.27;;;-0.30;84.40;;;;;;2216598;64;20097;-29
2021/12/09 07:04:34;;;;;;;3.60;1.63;;;-0.30;83.90;;;;;;2216465;64;20176;-30
2021/12/09 07:07:01;;;;;;;5.77;1.80;;;-0.30;84.00;;;;;;2219893;64;20103;-31
2021/12/09 07:09:29;;;;;;;5.40;2.87;;;-0.30;83.30;;;;;;2219878;64;20124;-30
2021/12/09 07:11:59;;;;;;;15.23;4.47;;;-0.30;83.50;;;;;;2219733;64;20085;-31
2021/12/09 07:14:25;;;;;;;1.80;1.13;;;-0.10;83.00;;;;;;2219684;64;20637;-31
2021/12/09 07:16:52;;;;;;;6.63;2.40;;;-0.10;82.60;;;;;;2219686;64;20177;-31
2021/12/09 07:19:18;;;;;;;8.40;3.40;;;-0.10;82.60;;;;;;2211441;64;20093;-29
2021/12/09 07:21:45;;;;;;;5.27;1.33;;;-0.10;82.00;;;;;;2214759;64;20081;-31
2021/12/09 07:24:12;;;;;;;8.67;2.53;;;0.00;81.40;;;;;;2214695;64;20672;-36
2021/12/09 07:26:38;;;;;;;4.87;1.80;;;0.00;80.80;;;;;;2211613;64;20581;-31
2021/12/09 07:29:05;;;;;;;7.10;3.63;;;0.00;81.10;;;;;;2208385;64;20100;-31
2021/12/09 07:31:31;;;;;;;5.33;1.03;;;0.00;80.90;;;;;;2211527;64;20089;-38
2021/12/09 07:33:59;;;;;;;3.60;1.00;;;0.20;80.60;;;;;;2211609;64;20112;-31
2021/12/09 07:36:27;;;;;;;10.73;2.07;;;0.10;80.50;;;;;;2211762;64;20097;-30
2021/12/09 07:38:54;;;;;;;8.60;1.67;;;0.00;81.50;;;;;;2211635;64;20197;-31
2021/12/09 07:41:21;;;;;;;20.70;2.93;;;0.00;81.80;;;;;;2211679;64;20108;-42
2021/12/09 07:43:49;;;;;;;5.07;1.37;;;0.00;81.40;;;;;;2211359;64;20089;-32
2021/12/09 07:46:17;;;;;;;6.33;1.63;;;0.20;80.40;;;;;;2208215;64;20584;-31
2021/12/09 07:48:43;;;;;;;6.27;2.00;;;0.20;80.30;;;;;;2208306;64;20085;-30
2021/12/09 07:51:09;;;;;;;10.97;2.13;;;0.40;80.20;;;;;;2211508;64;20112;-31
2021/12/09 07:53:36;;;;;;;5.97;1.40;;;0.40;79.90;;;;;;2211919;64;20113;-31
2021/12/09 07:56:03;;;;;;;9.67;2.67;;;0.30;79.00;;;;;;2211792;64;20094;-31
2021/12/09 07:58:32;;;;;;;7.57;1.53;;;0.40;79.10;;;;;;2208731;64;20533;-31
2021/12/09 08:00:59;;;;;;;3.03;0.67;;;0.20;80.30;;;;;;2208717;64;20624;-31
2021/12/09 08:03:25;;;;;;;3.63;1.00;;;0.30;79.20;;;;;;2211822;64;20116;-31
2021/12/09 08:05:52;;;;;;;12.73;2.60;;;0.30;79.10;;;;;;2208689;64;20086;-36
2021/12/09 08:08:18;;;;;;;2.73;0.70;;;0.50;78.60;;;;;;2211881;64;20110;-31
2021/12/09 08:10:45;;;;;;;9.57;2.60;;;0.60;77.40;;;;;;2211927;64;20094;-31
2021/12/09 08:13:13;;;;;;;7.63;2.60;;;0.60;77.50;;;;;;2211914;64;20105;-32
2021/12/09 08:15:45;;;;;;;4.90;2.20;;;0.60;77.50;;;;;;2208629;64;20113;-31
2021/12/09 08:20:45;;;;;;;2.43;0.90;;;0.80;76.60;;;;;;2211916;64;20074;-31
2021/12/09 08:23:12;;;;;;;3.77;1.70;;;0.80;76.70;;;;;;2207964;64;20104;-31
2021/12/09 08:25:38;;;;;;;5.60;1.83;;;0.60;77.40;;;;;;2211384;64;20564;-33
2021/12/09 08:28:05;;;;;;;6.63;1.97;;;0.70;77.30;;;;;;2208154;64;20140;-33
2021/12/09 08:30:31;;;;;;;2.73;1.40;;;0.60;77.20;;;;;;2208349;64;20481;-32
2021/12/09 08:32:58;;;;;;;2.30;0.87;;;0.80;77.50;;;;;;2208310;64;20097;-34
2021/12/09 08:35:25;;;;;;;5.50;1.30;;;0.80;77.00;;;;;;2208175;64;20085;-31
2021/12/09 08:37:54;;;;;;;2.37;0.60;;;0.70;76.80;;;;;;2211303;64;20093;-32
2021/12/09 08:40:21;;;;;;;2.83;1.27;;;0.80;77.00;;;;;;2211602;64;20097;-32
2021/12/09 08:42:49;;;;;;;7.57;1.50;;;1.00;76.00;;;;;;2212558;64;20089;-32
2021/12/09 08:45:16;;;;;;;8.57;1.53;;;1.00;76.40;;;;;;2215111;64;20093;-32
2021/12/09 08:47:42;;;;;;;4.63;1.20;;;0.90;75.90;;;;;;2214105;64;20570;-35
2021/12/09 08:50:11;;;;;;;12.23;2.70;;;0.70;76.90;;;;;;2219195;64;20154;-31
2021/12/09 08:52:38;;;;;;;1.93;0.93;;;0.90;76.60;;;;;;2218960;64;20567;-32
2021/12/09 08:55:05;;;;;;;5.53;1.43;;;1.00;76.10;;;;;;2215852;64;20104;-38
2021/12/09 08:57:32;;;;;;;5.93;0.80;;;0.70;76.70;;;;;;2216124;64;20631;-33
2021/12/09 08:59:59;;;;;;;8.63;1.83;;;0.80;77.50;;;;;;2216292;64;20163;-33
2021/12/09 09:02:26;;;;;;;7.43;2.20;;;0.90;76.40;;;;;;2216263;64;20085;-35
2021/12/09 09:04:53;;;;;;;1.90;1.33;;;1.00;76.70;;;;;;2216034;64;20088;-37
2021/12/09 09:07:20;;;;;;;3.77;1.60;;;0.90;75.70;;;;;;2215973;64;20627;-33
2021/12/09 09:09:47;;;;;;;3.10;0.90;;;1.00;76.00;;;;;;2216081;64;20156;-32
2021/12/09 09:12:14;;;;;;;9.33;2.00;;;0.90;77.30;;;;;;2216283;64;20148;-34
2021/12/09 09:14:43;;;;;;;2.90;1.20;;;1.20;76.10;;;;;;2216136;64;20105;-43
2021/12/09 09:17:10;;;;;;;10.17;1.63;;;1.20;75.20;;;;;;2216107;64;20103;-35
2021/12/09 09:19:36;;;;;;;6.73;1.60;;;1.40;74.70;;;;;;2216055;64;20535;-34
2021/12/09 09:22:04;;;;;;;8.17;1.30;;;1.40;75.20;;;;;;2216069;64;20506;-35
2021/12/09 09:24:31;;;;;;;9.40;2.77;;;1.40;75.20;;;;;;2216126;64;20176;-32
2021/12/09 09:26:58;;;;;;;18.77;2.60;;;1.30;75.20;;;;;;2219355;64;20087;-35
2021/12/09 09:29:25;;;;;;;11.67;1.60;;;1.40;74.10;;;;;;2216259;64;20137;-32
2021/12/09 09:31:52;;;;;;;7.80;2.17;;;1.30;74.30;;;;;;2215968;64;20217;-35
2021/12/09 09:34:18;;;;;;;21.20;3.03;;;1.30;75.20;;;;;;2215841;64;20238;-34
2021/12/09 09:36:45;;;;;;;3.17;1.27;;;1.30;75.10;;;;;;2212962;64;20561;-32
2021/12/09 09:39:21;;;;;;;11.60;1.33;;;1.20;75.80;;;;;;2216118;64;20097;-32
2021/12/09 09:42:17;;;;;;;4.20;1.63;;;1.10;75.60;;;;;;2216011;64;20095;-33
2021/12/09 09:44:49;;;;;;;11.40;1.23;;;0.80;77.10;;;;;;2208806;64;20089;-49
2021/12/09 09:47:18;;;;;;;9.80;1.00;;;1.00;77.60;;;;;;2215935;64;20165;-35
2021/12/09 09:49:45;;;;;;;8.50;2.20;;;1.00;77.60;;;;;;2216019;64;20093;-36
2021/12/09 09:52:11;;;;;;;8.33;1.73;;;1.10;77.60;;;;;;2216017;64;20530;-38
2021/12/09 09:54:38;;;;;;;5.43;1.50;;;1.20;76.80;;;;;;2215546;64;20096;-48
2021/12/09 09:57:05;;;;;;;9.00;3.23;;;1.10;76.90;;;;;;2215703;64;20108;-36
2021/12/09 09:59:31;;;;;;;6.37;1.73;;;1.00;78.30;;;;;;2215328;64;20084;-36
2021/12/09 10:01:58;;;;;;;6.70;3.00;;;1.00;78.30;;;;;;2215664;64;20161;-35
2021/12/09 10:07:11;;;;;;;26.20;4.63;;;1.20;77.30;;;;;;2215654;64;20100;-34
2021/12/09 10:09:37;;;;;;;5.90;1.87;;;1.00;78.10;;;;;;2215539;64;20093;-33
2021/12/09 10:12:04;;;;;;;12.50;1.60;;;1.30;76.80;;;;;;2212474;64;20092;-32
2021/12/09 10:14:33;;;;;;;8.77;1.40;;;1.20;76.80;;;;;;2215520;64;20697;-34
2021/12/09 10:17:16;;;;;;;10.13;1.47;;;1.20;76.40;;;;;;2215747;64;20092;-34
2021/12/09 10:19:51;;;;;;;10.77;2.53;;;1.00;77.80;;;;;;2203851;64;20152;-33
2021/12/09 10:22:20;;;;;;;;;;;1.00;77.40;;;;;;2204121;64;20177;-37
2021/12/09 10:24:49;;;;;;;6.37;1.43;;;1.10;77.40;;;;;;2203823;64;20135;-33
2021/12/09 10:27:22;;;;;;;9.07;1.33;;;1.00;77.50;;;;;;2203929;64;20562;-33
2021/12/09 10:29:48;;;;;;;3.87;1.40;;;1.10;78.00;;;;;;2203883;64;20513;-34
2021/12/09 10:32:22;;;;;;;16.43;2.40;;;0.90;79.00;;;;;;2207069;64;20636;-33
2021/12/09 10:34:49;;;;;;;3.10;1.60;;;0.90;79.50;;;;;;2207177;64;20094;-32
2021/12/09 10:37:23;;;;;;;3.03;1.27;;;0.90;78.70;;;;;;2204143;64;20086;-32
2021/12/09 10:39:55;;;;;;;15.17;2.33;;;1.00;79.50;;;;;;2204097;64;20754;-32
2021/12/09 10:42:23;;;;;;;3.13;1.20;;;1.20;78.60;;;;;;2204505;64;20501;-33
2021/12/09 10:44:56;;;;;;;12.67;2.70;;;1.20;77.80;;;;;;2207608;64;20149;-31
2021/12/09 10:50:19;;;;;;;6.10;1.73;;;1.30;78.10;;;;;;2210573;64;20151;-33
2021/12/09 10:52:50;;;;;;;7.57;1.80;;;1.10;78.60;;;;;;2220236;64;20089;-41
2021/12/09 10:55:20;;;;;;;9.67;1.83;;;1.10;78.60;;;;;;2220464;64;20148;-31
2021/12/09 10:57:57;;;;;;;11.23;2.50;;;1.00;79.70;;;;;;2220310;64;20081;-32
2021/12/09 11:00:33;;;;;;;4.37;1.43;;;0.80;80.80;;;;;;2220525;64;20225;-32
2021/12/09 11:03:09;;;;;;;4.57;1.63;;;0.90;80.00;;;;;;2220340;64;20196;-31
2021/12/09 11:05:38;;;;;;;1.97;0.70;;;0.70;80.80;;;;;;2220259;64;20093;-31
2021/12/09 11:08:27;;;;;;;14.37;3.17;;;0.90;81.00;;;;;;2214109;64;20127;-41
2021/12/09 11:11:07;;;;;;;2.53;1.00;;;1.10;80.50;;;;;;2220430;64;20152;-31
2021/12/09 11:13:47;;;;;;;3.77;1.53;;;1.10;80.00;;;;;;2217221;64;20099;-32
2021/12/09 11:16:23;;;;;;;1.87;0.80;;;1.20;79.50;;;;;;2220340;64;20539;-31
2021/12/09 11:19:05;;;;;;;13.53;2.23;;;1.10;79.40;;;;;;2220274;64;20092;-31
2021/12/09 11:21:34;;;;;;;5.40;1.30;;;0.90;80.80;;;;;;2220452;64;20531;-32
2021/12/09 11:24:08;;;;;;;3.23;1.70;;;1.10;79.60;;;;;;2220189;64;20150;-30
2021/12/09 11:29:21;;;;;;;2.73;1.10;;;1.20;79.00;;;;;;2219904;64;20100;-31
2021/12/09 11:32:04;;;;;;;2.63;1.13;;;1.30;78.90;;;;;;2211371;64;20085;-37
2021/12/09 11:34:43;;;;;;;4.40;0.90;;;1.10;79.10;;;;;;2208460;64;20109;-31
2021/12/09 11:37:33;;;;;;;9.13;1.83;;;1.10;79.80;;;;;;2208443;64;20094;-33
2021/12/09 11:40:09;;;;;;;4.33;1.17;;;1.00;79.90;;;;;;2208086;64;20085;-33
2021/12/09 11:42:44;;;;;;;11.67;2.53;;;1.10;79.90;;;;;;2208318;64;20178;-31
2021/12/09 11:45:11;;;;;;;;;;;1.00;81.00;;;;;;2211889;64;20176;-32
2021/12/09 11:47:42;;;;;;;3.47;0.60;;;1.00;81.40;;;;;;2210723;64;20052;-32
2021/12/09 11:50:14;;;;;;;13.53;2.23;;;1.00;81.20;;;;;;2207480;64;20124;-32
2021/12/09 11:52:43;;;;;;;2.83;1.60;;;1.00;81.80;;;;;;2207731;64;20086;-32
2021/12/09 11:55:17;;;;;;;2.47;0.97;;;1.00;81.40;;;;;;2210938;64;20245;-31
2021/12/09 11:57:52;;;;;;;3.47;1.60;;;1.00;81.70;;;;;;2207679;64;20108;-32
2021/12/09 12:12:22;;;;;;;;;;;1.00;82.20;;;;;;2214559;64;20175;-34
2021/12/09 12:14:51;;;;;;;6.87;1.90;;;1.00;82.20;;;;;;2208091;64;20044;-32
2021/12/09 12:17:26;;;;;;;6.37;2.07;;;1.10;81.00;;;;;;2204908;64;20094;-32
2021/12/09 12:23:07;;;;;;;6.95;2.30;;;1.00;82.00;;;;;;2214736;64;20051;-32
2021/12/09 12:26:49;;;;;;;;;;;1.00;82.30;;;;;;2206836;64;20321;-34
2021/12/09 12:31:16;;;;;;;3.50;1.57;;;1.10;81.20;;;;;;2206720;64;20133;-32
2021/12/09 12:39:35;;;;;;;9.97;2.77;;;1.00;81.70;;;;;;2214371;64;20540;-32
2021/12/09 12:42:08;;;;;;;5.93;2.73;;;0.90;82.50;;;;;;2208008;64;20081;-31
2021/12/09 12:44:35;;;;;;;15.13;2.57;;;0.80;82.70;;;;;;2207905;64;20147;-33
2021/12/09 12:47:14;;;;;;;10.63;1.97;;;0.80;83.00;;;;;;2207871;64;20089;-33
2021/12/09 12:49:46;;;;;;;5.10;1.33;;;0.80;82.80;;;;;;2207923;64;20648;-31
2021/12/09 12:52:21;;;;;;;17.23;2.20;;;0.70;83.60;;;;;;2214415;64;20077;-32
2021/12/09 12:54:55;;;;;;;8.17;2.37;;;0.70;83.30;;;;;;2208024;64;20097;-45
2021/12/09 12:57:33;;;;;;;12.93;2.10;;;0.60;84.50;;;;;;2217067;64;20084;-32
2021/12/09 13:00:07;;;;;;;5.73;1.83;;;0.60;84.70;;;;;;2220034;64;20093;-43
2021/12/09 13:11:14;;;;;;;8.90;3.00;;;0.70;84.70;;;;;;2192476;65;20587;-33
2021/12/09 13:21:43;;;;;;;4.37;1.47;;;1.00;83.70;;;;;;2195883;65;20218;-32
2021/12/09 13:24:43;;;;;;;13.17;2.63;;;1.00;82.80;;;;;;2192448;65;20277;-31
2021/12/09 13:27:13;;;;;;;4.22;1.98;;;0.90;83.10;;;;;;2192450;65;20110;-34
2021/12/09 13:32:31;;;;;;;6.20;1.93;;;0.70;84.80;;;;;;2192630;65;20099;-33
2021/12/09 13:35:11;;;;;;;5.00;2.07;;;0.70;85.00;;;;;;2192539;65;20163;-32
2021/12/09 13:38:05;;;;;;;9.00;2.17;;;0.80;84.60;;;;;;2192685;65;20083;-32
2021/12/09 13:45:52;;;;;;;10.33;2.37;;;0.70;84.10;;;;;;2192560;65;20605;-32
2021/12/09 13:46:32;;;;;;;4.17;2.00;;;0.80;84.80;;;;;;2217176;64;20092;-32
2021/12/09 13:49:57;;;;;;;7.87;2.27;;;0.80;84.20;;;;;;2215713;64;20476;-32
2021/12/09 13:54:07;;;;;;;6.73;2.47;;;0.90;84.60;;;;;;2213495;64;20161;-35
2021/12/09 13:54:55;;;;;;;10.03;2.00;;;0.80;84.90;;;;;;2213218;64;20097;-32
2021/12/09 13:57:35;;;;;;;7.97;2.63;;;0.90;84.50;;;;;;2216053;64;20077;-48
2021/12/09 14:00:10;;;;;;;13.10;1.93;;;0.90;84.20;;;;;;2215835;64;20564;-35